Broadway, New Jersey
Current Conditions -  °F | °C
As of 1:01 AM on Monday 24 Nov 2014 (Local Time) from KABE Reporting Station
Moderate Rain Moderate Rain  
Wind Chill: 50°   Ceiling: 900
Heat Index: 50°   Visibility: 2.5mi
Dew Point: 48°   Wind: 7mph
Humidity: 94%   Direction: 100°E
Pressure: 29.84"   Gusts: NA
Location:  40.73°N, 75.05°W
Report Text: KABE 240601Z 10006KT 2 1/2SM RA BR OVC009 10/09 A2984 RMK AO2 SFC VIS 3 P0001
Loading
Personal Weather Stations






























Interactive Weather Map New forecast layout! Learn more

10-Day Weather Forecast

Advertisements
Track Severe Weather on mobile